Time;durP1;ratioP1;P1;durP2;ratioP2;P2;SDS_P1;SDS_P2;PMS_P1;PMS_P2;Temp;Humidity;BMP_temperature;BMP_pressure;BME280_temperature;BME280_humidity;BME280_pressure;Samples;Min_cycle;Max_cycle;Signal;HPM_P1;HPM_P2
2021/12/06 00:07:26;;;;;;;114.85;58.00;;;;;;;1.77;93.80;98094.77;3949009;89;21071;-85
2021/12/06 00:13:28;;;;;;;123.13;62.98;;;;;;;1.73;93.78;98091.96;3950062;89;21100;-86
2021/12/06 00:19:30;;;;;;;116.60;60.92;;;;;;;1.71;93.70;98080.71;3951238;89;21059;-85
2021/12/06 00:25:32;;;;;;;118.15;60.38;;;;;;;1.47;93.48;98090.95;3948807;89;21519;-84
2021/12/06 00:38:36;;;;;;;117.45;59.33;;;;;;;1.27;93.96;98083.75;3950255;89;21117;-84
2021/12/06 00:44:38;;;;;;;115.28;55.40;;;;;;;1.34;94.05;98084.00;3923146;89;21120;-85
2021/12/06 00:50:43;;;;;;;110.08;56.30;;;;;;;1.31;93.96;98084.67;3932711;89;21078;-84
2021/12/06 00:56:57;;;;;;;104.67;53.60;;;;;;;1.33;94.14;98085.10;3931927;89;21617;-83
2021/12/06 01:03:07;;;;;;;96.72;51.75;;;;;;;1.24;94.01;98091.72;3933092;89;21553;-84
2021/12/06 01:09:08;;;;;;;103.53;50.95;;;;;;;1.14;93.85;98080.05;3931053;89;21077;-85
2021/12/06 01:15:10;;;;;;;106.47;53.40;;;;;;;0.97;93.78;98095.06;3925788;89;21632;-83
2021/12/06 01:22:04;;;;;;;104.43;53.28;;;;;;;1.03;93.78;98093.17;3919830;89;21097;-83
2021/12/06 01:40:38;;;;;;;94.58;50.50;;;;;;;1.10;94.37;98091.25;3934235;89;21605;-85
2021/12/06 01:46:47;;;;;;;93.62;48.73;;;;;;;1.11;94.05;98072.63;3950513;89;21106;-85
2021/12/06 01:52:55;;;;;;;98.30;50.60;;;;;;;1.16;94.11;98067.79;3951812;89;21097;-84
2021/12/06 01:58:57;;;;;;;106.50;53.02;;;;;;;1.14;94.11;98068.68;3946969;89;21150;-84
2021/12/06 02:05:04;;;;;;;105.47;51.88;;;;;;;1.04;93.79;98073.17;3949929;89;21162;-84
2021/12/06 02:11:08;;;;;;;99.55;50.50;;;;;;;1.00;94.20;98076.30;3942092;89;21195;-84
2021/12/06 02:17:23;;;;;;;97.67;51.65;;;;;;;0.99;94.26;98083.37;3949363;89;21136;-84
2021/12/06 02:23:21;;;;;;;93.25;49.00;;;;;;;0.89;94.07;98098.05;3951795;89;21039;-85
2021/12/06 02:29:31;;;;;;;103.85;54.67;;;;;;;0.94;94.58;98101.13;3945408;89;21043;-85
2021/12/06 02:35:33;;;;;;;109.52;55.50;;;;;;;0.97;94.37;98097.77;3950830;89;21139;-84
2021/12/06 02:41:42;;;;;;;100.87;50.65;;;;;;;0.90;94.35;98090.77;3946629;89;21106;-85
2021/12/06 02:48:03;;;;;;;105.55;52.60;;;;;;;0.92;94.65;98096.63;3915330;90;21043;-85
2021/12/06 02:54:06;;;;;;;109.20;54.95;;;;;;;1.02;94.60;98105.61;3916296;89;21157;-84
2021/12/06 03:00:11;;;;;;;110.75;53.85;;;;;;;1.08;94.65;98112.38;3917810;89;21140;-84
2021/12/06 03:06:21;;;;;;;;;;;;;;;1.16;94.96;98110.16;3920945;90;21058;-84
2021/12/06 03:12:27;;;;;;;99.80;49.95;;;;;;;1.15;94.57;98096.43;3914857;89;20239;-84
2021/12/06 03:18:33;;;;;;;76.75;40.65;;;;;;;1.05;94.44;98090.91;3922907;90;21050;-84
2021/12/06 03:24:35;;;;;;;94.37;47.95;;;;;;;1.11;94.87;98088.22;3917998;90;21094;-84
2021/12/06 03:30:46;;;;;;;100.10;52.03;;;;;;;1.05;94.65;98086.10;3922837;89;21104;-84
2021/12/06 03:43:15;;;;;;;116.55;58.30;;;;;;;1.05;94.76;98069.93;3919901;89;21086;-85
2021/12/06 03:49:21;;;;;;;110.65;54.93;;;;;;;1.08;94.77;98075.41;3895005;90;21522;-84
2021/12/06 03:55:30;;;;;;;117.30;60.30;;;;;;;1.06;94.94;98077.68;3913797;89;21661;-84
2021/12/06 04:01:38;;;;;;;113.83;58.33;;;;;;;1.02;94.87;98075.41;3920198;89;21094;-85
2021/12/06 04:07:43;;;;;;;111.12;55.73;;;;;;;0.96;94.73;98086.73;3918027;89;21042;-84
2021/12/06 04:13:45;;;;;;;122.95;59.38;;;;;;;0.95;95.37;98087.87;3920784;89;21061;-84
2021/12/06 04:19:57;;;;;;;117.35;58.85;;;;;;;1.05;95.30;98096.88;3919848;89;21627;-84
2021/12/06 04:26:00;;;;;;;114.10;55.35;;;;;;;1.04;95.42;98115.50;3778071;91;36053;-83
2021/12/06 04:32:03;;;;;;;119.97;59.85;;;;;;;1.04;95.24;98103.37;3815238;91;21585;-84
2021/12/06 04:38:06;;;;;;;111.03;57.70;;;;;;;0.97;95.15;98132.21;3803076;92;21138;-84
2021/12/06 04:44:10;;;;;;;100.75;52.75;;;;;;;1.07;95.69;98124.27;3811800;91;21651;-84
2021/12/06 04:50:14;;;;;;;122.28;61.70;;;;;;;1.07;95.46;98118.87;3970817;89;21097;-84
2021/12/06 04:56:31;;;;;;;118.65;60.10;;;;;;;1.14;95.75;98135.30;3959586;88;21045;-83
2021/12/06 05:02:37;;;;;;;108.07;55.98;;;;;;;1.12;95.50;98125.41;3965450;89;21072;-84
2021/12/06 05:08:46;;;;;;;111.95;58.02;;;;;;;1.11;95.58;98127.30;3911248;88;59471;-84
2021/12/06 05:14:50;;;;;;;113.32;58.28;;;;;;;1.16;96.20;98137.11;3909769;90;21749;-85
2021/12/06 05:20:52;;;;;;;112.52;58.42;;;;;;;1.13;95.50;98164.70;3908548;90;21026;-84
2021/12/06 05:26:56;;;;;;;122.02;61.92;;;;;;;1.17;95.81;98171.02;3906202;90;21565;-84
2021/12/06 05:32:59;;;;;;;109.83;56.58;;;;;;;1.23;95.89;98179.13;3907190;90;21108;-84
2021/12/06 05:39:06;;;;;;;112.72;57.33;;;;;;;1.26;95.83;98176.55;3905087;90;21165;-84
2021/12/06 05:45:09;;;;;;;120.20;60.48;;;;;;;1.33;95.79;98176.02;3861227;90;21128;-84
2021/12/06 05:51:10;;;;;;;119.62;61.00;;;;;;;1.40;95.84;98174.34;3879211;90;21093;-83
2021/12/06 05:57:12;;;;;;;117.95;58.42;;;;;;;1.33;95.58;98171.97;3805564;91;21548;-84
2021/12/06 06:03:19;;;;;;;126.82;61.98;;;;;;;1.31;95.63;98175.55;3880661;90;21084;-84
2021/12/06 06:09:22;;;;;;;126.18;64.45;;;;;;;1.31;95.56;98172.30;3879193;90;21041;-84
2021/12/06 06:15:29;;;;;;;139.12;69.67;;;;;;;1.34;95.53;98180.27;3873805;90;21041;-84
2021/12/06 06:21:31;;;;;;;142.72;69.87;;;;;;;1.32;95.65;98186.55;3807463;92;21079;-84
2021/12/06 06:27:32;;;;;;;137.10;70.32;;;;;;;1.33;95.68;98189.50;3868722;90;21129;-84
2021/12/06 06:33:33;;;;;;;139.43;68.22;;;;;;;1.33;95.56;98197.00;3839197;91;21065;-84
2021/12/06 06:39:40;;;;;;;139.72;66.95;;;;;;;1.33;95.52;98201.63;3868220;91;21753;-84
2021/12/06 06:45:42;;;;;;;135.00;66.97;;;;;;;1.31;95.82;98216.80;3911046;89;21132;-85
2021/12/06 06:51:53;;;;;;;141.12;70.40;;;;;;;1.30;95.72;98230.61;3929849;89;21101;-85
2021/12/06 06:58:03;;;;;;;151.07;71.90;;;;;;;1.27;95.78;98234.73;3933406;89;21130;-85
2021/12/06 07:04:05;;;;;;;150.42;73.15;;;;;;;1.27;95.87;98251.47;3939861;89;21117;-84
2021/12/06 07:10:09;;;;;;;147.17;73.28;;;;;;;1.26;95.81;98257.44;3861593;90;21138;-84
2021/12/06 07:16:11;;;;;;;154.57;73.67;;;;;;;1.29;96.05;98265.41;3932366;89;21147;-84
2021/12/06 07:22:12;;;;;;;143.28;69.17;;;;;;;1.25;96.13;98259.12;3928083;89;21157;-84
2021/12/06 07:28:33;;;;;;;145.30;68.95;;;;;;;1.28;95.93;98261.95;3861088;90;21548;-84
2021/12/06 07:34:48;;;;;;;133.60;62.98;;;;;;;1.26;95.81;98263.38;3935043;89;21114;-85
2021/12/06 07:40:55;;;;;;;136.52;64.50;;;;;;;1.27;95.88;98271.14;3933211;89;21088;-85
2021/12/06 07:47:05;;;;;;;133.90;64.40;;;;;;;1.33;95.83;98271.16;3924666;89;21568;-84
2021/12/06 08:00:23;;;;;;;128.97;64.22;;;;;;;1.20;95.81;98273.60;3849868;91;21085;-85
2021/12/06 08:06:25;;;;;;;125.87;56.42;;;;;;;1.14;96.12;98270.09;3787214;92;21065;-85
2021/12/06 08:12:57;;;;;;;124.82;58.10;;;;;;;1.08;95.77;98279.50;3795596;92;21518;-84
2021/12/06 08:18:59;;;;;;;130.20;60.95;;;;;;;0.99;96.29;98278.76;3816156;91;21650;-85
2021/12/06 08:25:00;;;;;;;124.50;57.10;;;;;;;1.14;96.71;98278.17;3810408;92;21186;-85
2021/12/06 08:31:05;;;;;;;115.50;57.35;;;;;;;1.22;96.25;98278.08;3915177;89;21203;-85
2021/12/06 08:37:12;;;;;;;120.28;57.58;;;;;;;1.22;96.18;98290.21;3901244;89;21046;-84
2021/12/06 08:43:21;;;;;;;111.08;51.50;;;;;;;1.23;96.26;98288.31;3925613;88;21066;-83
2021/12/06 08:49:22;;;;;;;109.12;46.53;;;;;;;1.25;96.27;98292.83;3869310;90;21068;-84
2021/12/06 08:55:29;;;;;;;99.25;45.05;;;;;;;1.31;96.56;98300.38;3945397;87;34950;-84
2021/12/06 09:01:54;;;;;;;101.50;43.68;;;;;;;1.42;96.45;98310.19;3859894;90;21059;-85
2021/12/06 09:08:04;;;;;;;92.30;41.77;;;;;;;1.45;96.52;98310.88;3908154;89;21138;-85
2021/12/06 09:14:20;;;;;;;94.83;39.90;;;;;;;1.47;96.52;98318.09;3907526;89;21059;-84
2021/12/06 09:20:56;;;;;;;84.20;39.27;;;;;;;1.47;96.63;98315.39;3906313;89;21042;-84
2021/12/06 09:27:00;;;;;;;86.95;39.15;;;;;;;1.44;96.54;98319.52;3910191;89;21063;-85
2021/12/06 09:33:25;;;;;;;83.60;36.08;;;;;;;1.42;96.70;98329.07;3957809;87;21036;-84
2021/12/06 09:39:27;;;;;;;69.55;31.70;;;;;;;1.33;96.67;98323.74;3969561;88;21575;-84
2021/12/06 09:45:31;;;;;;;59.60;29.70;;;;;;;1.33;96.76;98333.18;3954869;88;21043;-85
2021/12/06 09:51:33;;;;;;;55.20;28.38;;;;;;;1.41;96.71;98327.47;3954319;88;21740;-85
2021/12/06 09:57:42;;;;;;;50.12;27.82;;;;;;;1.36;96.81;98333.86;3950710;88;21085;-85
2021/12/06 10:03:49;;;;;;;54.30;27.07;;;;;;;1.38;97.01;98329.48;3942125;88;21643;-85
2021/12/06 10:09:51;;;;;;;;;;;;;;;1.37;96.85;98320.62;3955993;88;21109;-85
2021/12/06 10:15:58;;;;;;;58.52;30.62;;;;;;;1.36;96.80;98314.98;3951031;88;21262;-85
2021/12/06 10:22:13;;;;;;;71.15;34.70;;;;;;;1.42;96.92;98315.59;3949727;88;21028;-84
2021/12/06 10:28:19;;;;;;;63.68;34.95;;;;;;;1.42;97.16;98316.38;3882973;90;21122;-85
2021/12/06 10:34:30;;;;;;;49.97;24.67;;;;;;;1.42;96.97;98312.89;3960328;88;21062;-85
2021/12/06 10:40:36;;;;;;;65.30;30.05;;;;;;;1.40;97.11;98319.97;3882379;90;21118;-85
2021/12/06 10:46:47;;;;;;;59.00;31.48;;;;;;;1.48;97.34;98316.41;3873079;90;21540;-84
2021/12/06 10:52:59;;;;;;;70.15;33.30;;;;;;;1.61;97.40;98321.28;3860815;90;21042;-84
2021/12/06 10:59:19;;;;;;;62.15;32.53;;;;;;;1.70;97.37;98325.22;3949526;88;21797;-85
2021/12/06 11:05:28;;;;;;;59.67;32.42;;;;;;;1.69;97.36;98329.85;3952355;88;21050;-85
2021/12/06 11:11:37;;;;;;;64.05;33.38;;;;;;;1.60;97.08;98331.83;3949513;88;21049;-85
2021/12/06 11:18:01;;;;;;;61.50;33.40;;;;;;;1.61;97.18;98327.44;3953231;88;21091;-85
2021/12/06 11:24:30;;;;;;;75.20;36.10;;;;;;;1.68;97.29;98329.61;3952020;88;21139;-85
2021/12/06 11:30:35;;;;;;;73.35;37.63;;;;;;;1.68;97.17;98332.30;3849094;89;25410;-85
2021/12/06 11:36:42;;;;;;;66.57;35.23;;;;;;;1.66;97.46;98335.89;3932257;90;21032;-85
2021/12/06 11:43:08;;;;;;;68.72;34.65;;;;;;;1.68;97.23;98336.94;3936212;89;21055;-85
2021/12/06 11:49:49;;;;;;;70.83;36.03;;;;;;;1.63;97.01;98332.50;3928056;89;21079;-85
2021/12/06 11:55:58;;;;;;;71.80;36.42;;;;;;;1.53;97.04;98332.94;3932611;89;21035;-84
2021/12/06 12:02:00;;;;;;;74.35;38.88;;;;;;;1.43;97.00;98333.34;3934350;89;21064;-85
2021/12/06 12:08:19;;;;;;;69.12;36.48;;;;;;;1.37;97.17;98331.97;3854855;91;21775;-85
2021/12/06 12:14:59;;;;;;;68.65;36.13;;;;;;;1.36;97.17;98332.52;3854715;91;21137;-86
2021/12/06 12:21:01;;;;;;;81.85;40.00;;;;;;;1.35;97.25;98330.95;3896067;89;21036;-86
2021/12/06 12:33:26;;;;;;;78.17;39.88;;;;;;;1.34;97.28;98336.67;3895449;90;21032;-85
2021/12/06 12:39:28;;;;;;;89.97;42.67;;;;;;;1.31;97.45;98338.13;3846207;90;21067;-85
2021/12/06 12:45:39;;;;;;;78.65;41.18;;;;;;;1.31;97.61;98335.98;3840589;90;21640;-85
2021/12/06 12:52:02;;;;;;;87.22;42.67;;;;;;;1.34;97.74;98332.63;3919939;89;21139;-85
2021/12/06 12:58:26;;;;;;;73.60;37.40;;;;;;;1.40;97.79;98342.89;3841556;90;21033;-85
2021/12/06 13:04:28;;;;;;;73.52;37.48;;;;;;;1.43;97.64;98349.52;3921226;89;21049;-85
2021/12/06 13:10:56;;;;;;;79.32;41.08;;;;;;;1.43;97.66;98357.61;3899322;89;21065;-86
2021/12/06 13:17:03;;;;;;;75.22;39.18;;;;;;;1.42;97.68;98365.48;3912677;89;21049;-86
2021/12/06 13:23:11;;;;;;;75.10;36.50;;;;;;;1.40;97.65;98370.41;3920047;89;21083;-86
2021/12/06 13:29:45;;;;;;;63.80;34.10;;;;;;;1.33;97.54;98378.25;3937672;89;21220;-86
2021/12/06 13:35:59;;;;;;;71.42;34.18;;;;;;;1.29;97.64;98383.50;3911988;89;21051;-85
2021/12/06 13:42:10;;;;;;;66.07;32.53;;;;;;;1.30;97.78;98390.47;3862573;90;21139;-86
2021/12/06 13:48:33;;;;;;;58.92;33.35;;;;;;;1.31;97.50;98393.41;3926142;89;21067;-85
2021/12/06 13:54:42;;;;;;;75.20;35.55;;;;;;;1.27;97.66;98410.00;3799830;92;21033;-85
2021/12/06 14:00:48;;;;;;;69.22;34.27;;;;;;;1.24;97.54;98420.09;3925614;89;21042;-85
2021/12/06 14:07:01;;;;;;;73.35;36.50;;;;;;;1.20;97.60;98421.88;3846867;90;21155;-85
2021/12/06 14:13:09;;;;;;;66.82;33.70;;;;;;;1.16;97.51;98443.09;3917906;89;21046;-86
2021/12/06 14:19:13;;;;;;;69.82;34.15;;;;;;;1.11;97.36;98456.74;3917121;89;21139;-86
2021/12/06 14:25:20;;;;;;;70.47;35.55;;;;;;;1.11;97.56;98456.74;3917787;89;21131;-86
2021/12/06 14:31:24;;;;;;;72.97;34.67;;;;;;;1.11;97.61;98458.09;3917796;89;22310;-85
2021/12/06 14:37:26;;;;;;;69.25;32.00;;;;;;;1.05;97.47;98460.75;3931000;89;20994;-84
2021/12/06 14:43:28;;;;;;;63.48;30.68;;;;;;;1.00;97.49;98454.95;3909424;89;21192;-85
2021/12/06 14:49:32;;;;;;;60.85;31.23;;;;;;;1.04;97.51;98460.50;3919660;89;21127;-86
2021/12/06 14:55:45;;;;;;;69.17;32.30;;;;;;;0.94;97.43;98468.39;3914353;89;21526;-85
2021/12/06 15:01:57;;;;;;;64.87;31.95;;;;;;;0.90;97.48;98472.06;3921517;89;21147;-86
2021/12/06 15:08:10;;;;;;;63.33;34.00;;;;;;;0.87;97.47;98468.13;3923080;89;21087;-86
2021/12/06 15:14:18;;;;;;;66.53;35.83;;;;;;;0.86;97.50;98471.14;3857707;90;21107;-85
2021/12/06 15:20:20;;;;;;;79.17;38.00;;;;;;;0.85;97.50;98473.03;3919246;89;20978;-85
2021/12/06 15:26:30;;;;;;;73.85;38.05;;;;;;;0.83;97.79;98472.56;3919497;89;21578;-85
2021/12/06 15:32:32;;;;;;;68.45;37.28;;;;;;;0.86;97.67;98478.65;3936367;89;21045;-85
2021/12/06 15:38:51;;;;;;;73.62;38.15;;;;;;;0.88;97.65;98489.10;3855476;90;21710;-85
2021/12/06 15:44:56;;;;;;;79.37;40.85;;;;;;;0.85;97.88;98486.51;3867161;91;21120;-85
2021/12/06 15:51:10;;;;;;;74.87;39.35;;;;;;;0.86;97.88;98498.86;3917578;89;21089;-86
2021/12/06 15:57:28;;;;;;;67.10;35.73;;;;;;;0.94;97.94;98493.22;3835200;91;21601;-84
2021/12/06 16:03:37;;;;;;;72.62;38.02;;;;;;;1.00;97.87;98490.58;3834635;91;21155;-86
2021/12/06 16:09:44;;;;;;;73.40;40.17;;;;;;;1.02;97.87;98495.06;3922459;89;21788;-84
2021/12/06 16:15:50;;;;;;;79.30;41.98;;;;;;;1.00;97.82;98504.82;3850240;91;21014;-83
2021/12/06 16:21:55;;;;;;;74.42;39.80;;;;;;;0.97;97.74;98519.52;3922799;90;21062;-84
2021/12/06 16:28:02;;;;;;;79.00;40.50;;;;;;;0.99;97.86;98514.58;3925321;90;21056;-85
2021/12/06 16:34:25;;;;;;;74.25;39.50;;;;;;;0.95;97.80;98515.80;3918678;90;21639;-84
2021/12/06 16:40:36;;;;;;;73.87;39.48;;;;;;;0.92;97.85;98519.70;3917933;89;21100;-84
2021/12/06 16:46:51;;;;;;;67.08;36.33;;;;;;;0.88;97.72;98513.35;3850728;91;21937;-85
2021/12/06 16:53:08;;;;;;;74.42;38.15;;;;;;;0.83;97.76;98514.33;3915227;90;22340;-84
2021/12/06 16:59:16;;;;;;;78.35;41.10;;;;;;;0.85;97.75;98509.41;3779509;89;31510;-84
2021/12/06 17:05:19;;;;;;;69.40;40.28;;;;;;;0.83;97.94;98509.52;3869281;91;21654;-85
2021/12/06 17:11:26;;;;;;;73.45;38.13;;;;;;;0.86;97.91;98508.86;3853389;91;21048;-85
2021/12/06 17:17:47;;;;;;;77.42;40.45;;;;;;;0.85;97.82;98502.67;3843103;91;21095;-84
2021/12/06 17:23:55;;;;;;;75.12;40.40;;;;;;;0.85;97.98;98505.92;3852890;91;21037;-85
2021/12/06 17:29:58;;;;;;;84.25;40.38;;;;;;;0.85;98.00;98517.50;3860222;91;21033;-85
2021/12/06 17:36:03;;;;;;;78.33;38.45;;;;;;;0.88;97.94;98514.70;3821676;91;21050;-85
2021/12/06 17:42:05;;;;;;;73.83;41.15;;;;;;;0.91;97.98;98519.47;3843100;91;21143;-84
2021/12/06 17:48:37;;;;;;;84.03;43.35;;;;;;;0.90;97.86;98521.91;3848297;91;21077;-85
2021/12/06 17:54:39;;;;;;;91.12;45.23;;;;;;;0.90;97.76;98529.45;3851114;91;21594;-84
2021/12/06 18:00:49;;;;;;;84.95;42.03;;;;;;;0.89;97.81;98541.91;3839557;91;21060;-85
2021/12/06 18:06:51;;;;;;;84.05;42.73;;;;;;;0.84;97.83;98538.03;3847000;91;21630;-85
2021/12/06 18:12:53;;;;;;;80.42;42.03;;;;;;;0.85;97.82;98548.48;3853816;91;21127;-85
2021/12/06 18:18:55;;;;;;;77.97;38.10;;;;;;;0.86;97.77;98554.67;3816600;92;21099;-85
2021/12/06 18:25:05;;;;;;;77.17;39.40;;;;;;;0.77;97.64;98561.42;3723129;91;9999919;-86
2021/12/06 18:31:09;;;;;;;78.72;38.98;;;;;;;0.73;97.83;98563.19;3808056;93;21083;-85
2021/12/06 18:37:18;;;;;;;77.45;41.02;;;;;;;0.74;97.84;98562.06;3823396;91;21003;-85
2021/12/06 18:50:22;;;;;;;65.35;34.65;;;;;;;0.76;97.79;98567.94;3770289;91;21570;-85
2021/12/06 18:56:44;;;;;;;76.25;39.55;;;;;;;0.74;97.67;98576.08;3756022;93;21016;-86
2021/12/06 19:02:53;;;;;;;72.08;39.03;;;;;;;0.75;97.87;98580.38;3705247;95;21407;-86
2021/12/06 19:09:04;;;;;;;80.25;40.20;;;;;;;0.80;97.88;98590.41;3772988;93;21067;-86
2021/12/06 19:15:20;;;;;;;78.07;38.92;;;;;;;0.81;97.87;98597.41;3784578;93;21158;-85
2021/12/06 19:21:19;;;;;;;74.87;39.03;;;;;;;0.78;97.81;98593.20;3647631;94;21111;-85
2021/12/06 19:27:35;;;;;;;71.12;37.45;;;;;;;0.75;97.68;98598.66;3805716;93;21598;-85
2021/12/06 19:34:08;;;;;;;74.15;37.70;;;;;;;0.78;97.75;98608.02;3773786;93;21079;-86
2021/12/06 19:40:13;;;;;;;77.03;37.55;;;;;;;0.74;97.91;98603.03;3788313;93;21091;-85
2021/12/06 19:46:28;;;;;;;69.62;35.78;;;;;;;0.77;97.80;98601.03;3798131;93;21642;-86
2021/12/06 19:52:33;;;;;;;54.07;26.50;;;;;;;0.80;97.64;98604.47;3854265;91;21596;-84
2021/12/06 19:58:36;;;;;;;72.67;36.80;;;;;;;0.76;97.79;98596.77;3852880;91;21091;-86
2021/12/06 20:04:38;;;;;;;68.67;36.53;;;;;;;0.67;97.64;98606.23;3857126;91;21079;-85
2021/12/06 20:10:40;;;;;;;70.65;36.08;;;;;;;0.70;97.74;98607.48;3849761;91;21103;-85
2021/12/06 20:16:42;;;;;;;70.65;36.40;;;;;;;0.65;97.52;98591.48;3862021;91;21043;-86
2021/12/06 20:22:44;;;;;;;79.58;41.00;;;;;;;0.57;97.82;98600.36;3861796;91;21336;-85
2021/12/06 20:28:49;;;;;;;75.47;38.45;;;;;;;0.52;97.82;98589.20;3764766;91;9999755;-85
2021/12/06 20:34:58;;;;;;;72.72;38.85;;;;;;;0.56;97.83;98601.48;3870060;91;21047;-86
2021/12/06 20:41:02;;;;;;;76.50;40.78;;;;;;;0.57;97.79;98598.47;3865910;91;21044;-85
2021/12/06 20:47:16;;;;;;;82.35;41.42;;;;;;;0.50;97.78;98593.34;3859382;90;21098;-86
2021/12/06 20:53:18;;;;;;;81.60;42.90;;;;;;;0.49;97.78;98600.61;3858686;91;21046;-85
2021/12/06 20:59:21;;;;;;;85.75;42.93;;;;;;;0.48;97.85;98592.31;3855123;91;21078;-85
2021/12/06 21:05:23;;;;;;;87.70;43.85;;;;;;;0.52;98.05;98593.81;3849962;91;21057;-85
2021/12/06 21:11:42;;;;;;;84.90;42.78;;;;;;;0.53;98.02;98586.77;3818034;92;21059;-85
2021/12/06 21:17:35;;;;;;;74.35;40.23;;;;;;;0.55;97.98;98590.48;3818358;92;21096;-85
2021/12/06 21:23:47;;;;;;;85.45;41.63;;;;;;;0.52;97.88;98579.00;3830183;92;21401;-85
2021/12/06 21:29:50;;;;;;;81.45;41.55;;;;;;;0.48;97.93;98574.80;3817909;92;21071;-85
2021/12/06 21:35:52;;;;;;;84.62;42.25;;;;;;;0.49;98.00;98573.69;3823032;92;21158;-85
2021/12/06 21:42:15;;;;;;;77.75;42.62;;;;;;;0.51;97.99;98574.16;3817781;92;21119;-85
2021/12/06 21:48:16;;;;;;;94.15;46.20;;;;;;;0.59;98.05;98581.98;3817646;92;21056;-84
2021/12/06 21:54:19;;;;;;;77.08;41.08;;;;;;;0.59;98.04;98572.56;3828345;92;21423;-85
2021/12/06 22:00:21;;;;;;;83.85;43.75;;;;;;;0.60;97.92;98569.55;3859720;91;21115;-85
2021/12/06 22:06:37;;;;;;;79.40;40.33;;;;;;;0.62;97.91;98575.41;3829528;92;21158;-85
2021/12/06 22:12:48;;;;;;;79.97;40.43;;;;;;;0.62;98.03;98577.30;3851777;91;21079;-85
2021/12/06 22:18:51;;;;;;;75.03;39.90;;;;;;;0.65;97.98;98574.77;3860655;91;21103;-85
2021/12/06 22:25:05;;;;;;;82.02;42.53;;;;;;;0.62;97.80;98580.80;3858049;91;21030;-85
2021/12/06 22:31:10;;;;;;;99.28;51.85;;;;;;;0.63;97.92;98584.27;3861487;91;22243;-85
2021/12/06 22:37:29;;;;;;;97.83;50.97;;;;;;;0.57;97.88;98580.96;3840253;91;21055;-85
2021/12/06 22:43:31;;;;;;;94.50;50.92;;;;;;;0.66;98.03;98583.08;3841269;91;21130;-85
2021/12/06 22:49:33;;;;;;;88.15;46.20;;;;;;;0.71;97.93;98578.88;3851323;91;21092;-85
2021/12/06 22:55:42;;;;;;;79.50;43.17;;;;;;;0.78;98.04;98573.00;3850137;92;21083;-86
2021/12/06 23:01:51;;;;;;;75.78;39.92;;;;;;;0.78;97.66;98582.43;3845535;92;21433;-85
2021/12/06 23:08:06;;;;;;;84.55;42.43;;;;;;;0.77;97.68;98586.22;3864285;92;21098;-85
2021/12/06 23:14:08;;;;;;;77.30;42.98;;;;;;;0.77;97.74;98588.36;3854762;92;21528;-85
2021/12/06 23:20:52;;;;;;;76.57;40.45;;;;;;;0.73;97.65;98592.02;3871347;92;21075;-85
2021/12/06 23:27:21;;;;;;;80.65;40.05;;;;;;;0.72;97.62;98588.53;3851349;92;21709;-86
2021/12/06 23:33:35;;;;;;;78.70;40.85;;;;;;;0.78;97.74;98583.78;3856587;91;22037;-85
2021/12/06 23:39:59;;;;;;;72.45;38.17;;;;;;;0.80;97.63;98560.78;3866061;91;21535;-85
2021/12/06 23:53:07;;;;;;;85.45;43.20;;;;;;;0.87;97.52;98574.56;3851403;91;21121;-86
2021/12/06 23:59:32;;;;;;;75.20;38.55;;;;;;;0.85;97.43;98590.25;3845628;91;21314;-85
